sensor_id;sensor_type;location;lat;lon;timestamp;P1;durP1;ratioP1;P2;durP2;ratioP2
14768;SDS011;7476;49.404;11.152;2022-08-27T00:01:44;18.07;;;14.00;;
14768;SDS011;7476;49.404;11.152;2022-08-27T00:04:11;19.77;;;14.60;;
14768;SDS011;7476;49.404;11.152;2022-08-27T00:06:37;20.00;;;13.60;;
14768;SDS011;7476;49.404;11.152;2022-08-27T00:09:04;15.33;;;12.27;;
14768;SDS011;7476;49.404;11.152;2022-08-27T00:11:31;12.93;;;11.50;;
14768;SDS011;7476;49.404;11.152;2022-08-27T00:14:00;14.20;;;12.70;;
14768;SDS011;7476;49.404;11.152;2022-08-27T00:16:27;13.80;;;12.40;;
14768;SDS011;7476;49.404;11.152;2022-08-27T00:18:54;13.13;;;11.40;;
14768;SDS011;7476;49.404;11.152;2022-08-27T00:21:20;14.10;;;11.93;;
14768;SDS011;7476;49.404;11.152;2022-08-27T00:23:47;19.90;;;13.87;;
14768;SDS011;7476;49.404;11.152;2022-08-27T00:26:15;19.13;;;14.00;;
14768;SDS011;7476;49.404;11.152;2022-08-27T00:28:42;19.90;;;14.07;;
14768;SDS011;7476;49.404;11.152;2022-08-27T00:31:11;19.27;;;14.80;;
14768;SDS011;7476;49.404;11.152;2022-08-27T00:33:38;21.30;;;14.23;;
14768;SDS011;7476;49.404;11.152;2022-08-27T00:36:05;16.33;;;13.53;;
14768;SDS011;7476;49.404;11.152;2022-08-27T00:38:32;16.73;;;14.47;;
14768;SDS011;7476;49.404;11.152;2022-08-27T00:40:59;18.00;;;14.13;;
14768;SDS011;7476;49.404;11.152;2022-08-27T00:43:27;18.53;;;14.70;;
14768;SDS011;7476;49.404;11.152;2022-08-27T00:45:57;18.90;;;13.97;;
14768;SDS011;7476;49.404;11.152;2022-08-27T00:48:30;21.97;;;15.10;;
14768;SDS011;7476;49.404;11.152;2022-08-27T00:50:59;19.73;;;13.70;;
14768;SDS011;7476;49.404;11.152;2022-08-27T00:53:28;17.97;;;14.20;;
14768;SDS011;7476;49.404;11.152;2022-08-27T00:55:58;18.43;;;14.03;;
14768;SDS011;7476;49.404;11.152;2022-08-27T00:58:33;18.47;;;13.67;;
14768;SDS011;7476;49.404;11.152;2022-08-27T01:01:02;21.83;;;15.13;;
14768;SDS011;7476;49.404;11.152;2022-08-27T01:03:32;17.07;;;13.40;;
14768;SDS011;7476;49.404;11.152;2022-08-27T01:06:00;14.33;;;12.83;;
14768;SDS011;7476;49.404;11.152;2022-08-27T01:08:30;18.00;;;14.63;;
14768;SDS011;7476;49.404;11.152;2022-08-27T01:11:01;19.47;;;13.80;;
14768;SDS011;7476;49.404;11.152;2022-08-27T01:13:29;17.77;;;14.10;;
14768;SDS011;7476;49.404;11.152;2022-08-27T01:15:57;18.27;;;14.20;;
14768;SDS011;7476;49.404;11.152;2022-08-27T01:18:24;23.13;;;15.40;;
14768;SDS011;7476;49.404;11.152;2022-08-27T01:20:54;20.40;;;15.77;;
14768;SDS011;7476;49.404;11.152;2022-08-27T01:23:26;15.70;;;13.17;;
14768;SDS011;7476;49.404;11.152;2022-08-27T01:26:02;18.73;;;14.10;;
14768;SDS011;7476;49.404;11.152;2022-08-27T01:28:30;15.30;;;13.70;;
14768;SDS011;7476;49.404;11.152;2022-08-27T01:30:59;17.17;;;14.73;;
14768;SDS011;7476;49.404;11.152;2022-08-27T01:33:27;20.30;;;16.30;;
14768;SDS011;7476;49.404;11.152;2022-08-27T01:35:53;19.53;;;15.40;;
14768;SDS011;7476;49.404;11.152;2022-08-27T01:38:20;18.77;;;14.63;;
14768;SDS011;7476;49.404;11.152;2022-08-27T01:40:48;23.17;;;16.07;;
14768;SDS011;7476;49.404;11.152;2022-08-27T01:43:16;20.83;;;16.33;;
14768;SDS011;7476;49.404;11.152;2022-08-27T01:45:44;18.57;;;15.30;;
14768;SDS011;7476;49.404;11.152;2022-08-27T01:48:13;18.33;;;14.60;;
14768;SDS011;7476;49.404;11.152;2022-08-27T01:50:40;18.83;;;15.87;;
14768;SDS011;7476;49.404;11.152;2022-08-27T01:53:09;18.87;;;16.67;;
14768;SDS011;7476;49.404;11.152;2022-08-27T01:55:37;18.37;;;15.70;;
14768;SDS011;7476;49.404;11.152;2022-08-27T01:58:05;21.03;;;15.90;;
14768;SDS011;7476;49.404;11.152;2022-08-27T02:00:33;18.53;;;15.60;;
14768;SDS011;7476;49.404;11.152;2022-08-27T02:03:03;21.03;;;15.57;;
14768;SDS011;7476;49.404;11.152;2022-08-27T02:05:30;20.53;;;15.77;;
14768;SDS011;7476;49.404;11.152;2022-08-27T02:07:58;20.27;;;15.47;;
14768;SDS011;7476;49.404;11.152;2022-08-27T02:10:26;19.53;;;15.27;;
14768;SDS011;7476;49.404;11.152;2022-08-27T02:12:54;22.00;;;15.33;;
14768;SDS011;7476;49.404;11.152;2022-08-27T02:15:21;18.73;;;14.13;;
14768;SDS011;7476;49.404;11.152;2022-08-27T02:17:51;16.20;;;13.37;;
14768;SDS011;7476;49.404;11.152;2022-08-27T02:20:18;16.77;;;13.10;;
14768;SDS011;7476;49.404;11.152;2022-08-27T02:22:45;15.00;;;13.17;;
14768;SDS011;7476;49.404;11.152;2022-08-27T02:25:13;15.77;;;12.60;;
14768;SDS011;7476;49.404;11.152;2022-08-27T02:27:41;18.33;;;14.23;;
14768;SDS011;7476;49.404;11.152;2022-08-27T02:30:09;18.77;;;14.23;;
14768;SDS011;7476;49.404;11.152;2022-08-27T02:32:39;17.70;;;13.87;;
14768;SDS011;7476;49.404;11.152;2022-08-27T02:35:07;17.10;;;13.23;;
14768;SDS011;7476;49.404;11.152;2022-08-27T02:37:34;14.57;;;12.73;;
14768;SDS011;7476;49.404;11.152;2022-08-27T02:40:02;14.57;;;13.07;;
14768;SDS011;7476;49.404;11.152;2022-08-27T02:42:30;16.17;;;13.27;;
14768;SDS011;7476;49.404;11.152;2022-08-27T02:44:57;15.60;;;12.60;;
14768;SDS011;7476;49.404;11.152;2022-08-27T02:47:23;16.07;;;12.90;;
14768;SDS011;7476;49.404;11.152;2022-08-27T02:49:50;17.67;;;13.03;;
14768;SDS011;7476;49.404;11.152;2022-08-27T02:52:18;17.30;;;13.20;;
14768;SDS011;7476;49.404;11.152;2022-08-27T02:54:45;17.37;;;13.77;;
14768;SDS011;7476;49.404;11.152;2022-08-27T02:57:13;20.70;;;13.03;;
14768;SDS011;7476;49.404;11.152;2022-08-27T02:59:39;15.40;;;12.73;;
14768;SDS011;7476;49.404;11.152;2022-08-27T03:02:06;18.13;;;13.27;;
14768;SDS011;7476;49.404;11.152;2022-08-27T03:04:34;16.27;;;14.40;;
14768;SDS011;7476;49.404;11.152;2022-08-27T03:07:01;15.23;;;13.63;;
14768;SDS011;7476;49.404;11.152;2022-08-27T03:09:29;17.17;;;13.23;;
14768;SDS011;7476;49.404;11.152;2022-08-27T03:11:56;16.07;;;12.93;;
14768;SDS011;7476;49.404;11.152;2022-08-27T03:14:23;14.73;;;13.13;;
14768;SDS011;7476;49.404;11.152;2022-08-27T03:16:50;16.97;;;14.20;;
14768;SDS011;7476;49.404;11.152;2022-08-27T03:19:16;15.37;;;13.60;;
14768;SDS011;7476;49.404;11.152;2022-08-27T03:21:42;19.03;;;14.97;;
14768;SDS011;7476;49.404;11.152;2022-08-27T03:24:09;20.27;;;15.37;;
14768;SDS011;7476;49.404;11.152;2022-08-27T03:26:37;19.40;;;15.27;;
14768;SDS011;7476;49.404;11.152;2022-08-27T03:29:04;21.67;;;15.53;;
14768;SDS011;7476;49.404;11.152;2022-08-27T03:31:31;20.57;;;15.47;;
14768;SDS011;7476;49.404;11.152;2022-08-27T03:33:59;18.73;;;15.63;;
14768;SDS011;7476;49.404;11.152;2022-08-27T03:36:28;21.00;;;16.43;;
14768;SDS011;7476;49.404;11.152;2022-08-27T03:38:56;22.20;;;17.13;;
14768;SDS011;7476;49.404;11.152;2022-08-27T03:41:23;20.57;;;16.33;;
14768;SDS011;7476;49.404;11.152;2022-08-27T03:43:52;24.77;;;18.97;;
14768;SDS011;7476;49.404;11.152;2022-08-27T03:46:19;19.80;;;16.67;;
14768;SDS011;7476;49.404;11.152;2022-08-27T03:48:46;20.37;;;15.73;;
14768;SDS011;7476;49.404;11.152;2022-08-27T03:51:14;26.17;;;16.63;;
14768;SDS011;7476;49.404;11.152;2022-08-27T03:53:41;21.70;;;17.00;;
14768;SDS011;7476;49.404;11.152;2022-08-27T03:56:11;20.63;;;15.50;;
14768;SDS011;7476;49.404;11.152;2022-08-27T03:58:38;19.53;;;14.90;;
14768;SDS011;7476;49.404;11.152;2022-08-27T04:01:06;18.93;;;15.10;;
14768;SDS011;7476;49.404;11.152;2022-08-27T04:03:33;16.40;;;13.83;;
14768;SDS011;7476;49.404;11.152;2022-08-27T04:06:00;18.17;;;14.40;;
14768;SDS011;7476;49.404;11.152;2022-08-27T04:08:27;19.47;;;15.63;;
14768;SDS011;7476;49.404;11.152;2022-08-27T04:10:54;20.73;;;13.83;;
14768;SDS011;7476;49.404;11.152;2022-08-27T04:13:21;23.27;;;16.37;;
14768;SDS011;7476;49.404;11.152;2022-08-27T04:15:51;21.93;;;16.37;;
14768;SDS011;7476;49.404;11.152;2022-08-27T04:18:20;21.27;;;14.77;;
14768;SDS011;7476;49.404;11.152;2022-08-27T04:20:48;21.60;;;15.47;;
14768;SDS011;7476;49.404;11.152;2022-08-27T04:23:16;17.27;;;14.50;;
14768;SDS011;7476;49.404;11.152;2022-08-27T04:25:44;18.73;;;13.43;;
14768;SDS011;7476;49.404;11.152;2022-08-27T04:28:11;24.93;;;16.20;;
14768;SDS011;7476;49.404;11.152;2022-08-27T04:30:39;17.07;;;14.43;;
14768;SDS011;7476;49.404;11.152;2022-08-27T04:33:06;18.27;;;14.97;;
14768;SDS011;7476;49.404;11.152;2022-08-27T04:35:35;20.63;;;14.90;;
14768;SDS011;7476;49.404;11.152;2022-08-27T04:38:01;17.27;;;13.80;;
14768;SDS011;7476;49.404;11.152;2022-08-27T04:40:29;17.83;;;14.17;;
14768;SDS011;7476;49.404;11.152;2022-08-27T04:43:09;19.83;;;14.97;;
14768;SDS011;7476;49.404;11.152;2022-08-27T04:45:41;17.27;;;15.13;;
14768;SDS011;7476;49.404;11.152;2022-08-27T04:48:08;20.63;;;16.00;;
14768;SDS011;7476;49.404;11.152;2022-08-27T04:50:39;19.70;;;14.90;;
14768;SDS011;7476;49.404;11.152;2022-08-27T04:53:05;19.73;;;15.37;;
14768;SDS011;7476;49.404;11.152;2022-08-27T04:55:32;20.07;;;15.17;;
14768;SDS011;7476;49.404;11.152;2022-08-27T04:57:59;17.33;;;14.07;;
14768;SDS011;7476;49.404;11.152;2022-08-27T05:00:25;17.30;;;14.57;;
14768;SDS011;7476;49.404;11.152;2022-08-27T05:02:52;19.50;;;14.43;;
14768;SDS011;7476;49.404;11.152;2022-08-27T05:05:19;17.80;;;15.20;;
14768;SDS011;7476;49.404;11.152;2022-08-27T05:07:48;20.90;;;15.30;;
14768;SDS011;7476;49.404;11.152;2022-08-27T05:10:14;18.57;;;14.43;;
14768;SDS011;7476;49.404;11.152;2022-08-27T05:12:41;20.03;;;15.33;;
14768;SDS011;7476;49.404;11.152;2022-08-27T05:15:08;15.87;;;13.07;;
14768;SDS011;7476;49.404;11.152;2022-08-27T05:17:36;21.13;;;15.00;;
14768;SDS011;7476;49.404;11.152;2022-08-27T05:20:03;17.47;;;13.80;;
14768;SDS011;7476;49.404;11.152;2022-08-27T05:22:30;19.17;;;14.83;;
14768;SDS011;7476;49.404;11.152;2022-08-27T05:24:58;15.73;;;13.40;;
14768;SDS011;7476;49.404;11.152;2022-08-27T05:27:25;23.17;;;15.23;;
14768;SDS011;7476;49.404;11.152;2022-08-27T05:29:52;18.97;;;15.33;;
14768;SDS011;7476;49.404;11.152;2022-08-27T05:32:18;17.03;;;14.63;;
14768;SDS011;7476;49.404;11.152;2022-08-27T05:34:45;20.13;;;16.07;;
14768;SDS011;7476;49.404;11.152;2022-08-27T05:37:12;19.93;;;14.60;;
14768;SDS011;7476;49.404;11.152;2022-08-27T05:39:39;24.70;;;15.67;;
14768;SDS011;7476;49.404;11.152;2022-08-27T05:42:06;21.20;;;15.83;;
14768;SDS011;7476;49.404;11.152;2022-08-27T05:44:33;19.77;;;15.57;;
14768;SDS011;7476;49.404;11.152;2022-08-27T05:47:01;29.93;;;17.53;;
14768;SDS011;7476;49.404;11.152;2022-08-27T05:49:27;25.23;;;16.57;;
14768;SDS011;7476;49.404;11.152;2022-08-27T05:51:55;20.30;;;16.83;;
14768;SDS011;7476;49.404;11.152;2022-08-27T05:54:21;20.73;;;16.70;;
14768;SDS011;7476;49.404;11.152;2022-08-27T05:56:48;23.07;;;15.87;;
14768;SDS011;7476;49.404;11.152;2022-08-27T05:59:16;24.17;;;16.17;;
14768;SDS011;7476;49.404;11.152;2022-08-27T06:02:01;21.43;;;16.20;;
14768;SDS011;7476;49.404;11.152;2022-08-27T06:04:28;19.20;;;15.33;;
14768;SDS011;7476;49.404;11.152;2022-08-27T06:06:54;17.70;;;15.77;;
14768;SDS011;7476;49.404;11.152;2022-08-27T06:09:22;27.37;;;16.93;;
14768;SDS011;7476;49.404;11.152;2022-08-27T06:11:53;23.37;;;15.90;;
14768;SDS011;7476;49.404;11.152;2022-08-27T06:14:21;22.33;;;15.53;;
14768;SDS011;7476;49.404;11.152;2022-08-27T06:16:48;19.57;;;15.97;;
14768;SDS011;7476;49.404;11.152;2022-08-27T06:19:15;16.90;;;14.53;;
14768;SDS011;7476;49.404;11.152;2022-08-27T06:21:42;17.93;;;14.93;;
14768;SDS011;7476;49.404;11.152;2022-08-27T06:24:09;18.53;;;14.10;;
14768;SDS011;7476;49.404;11.152;2022-08-27T06:26:37;14.87;;;13.23;;
14768;SDS011;7476;49.404;11.152;2022-08-27T06:29:05;14.90;;;12.70;;
14768;SDS011;7476;49.404;11.152;2022-08-27T06:31:34;14.97;;;12.93;;
14768;SDS011;7476;49.404;11.152;2022-08-27T06:34:03;14.33;;;12.43;;
14768;SDS011;7476;49.404;11.152;2022-08-27T06:36:32;15.60;;;13.20;;
14768;SDS011;7476;49.404;11.152;2022-08-27T06:39:01;15.93;;;13.50;;
14768;SDS011;7476;49.404;11.152;2022-08-27T06:41:28;17.20;;;13.77;;
14768;SDS011;7476;49.404;11.152;2022-08-27T06:43:55;14.23;;;12.73;;
14768;SDS011;7476;49.404;11.152;2022-08-27T06:46:23;14.57;;;12.57;;
14768;SDS011;7476;49.404;11.152;2022-08-27T06:48:53;15.40;;;13.60;;
14768;SDS011;7476;49.404;11.152;2022-08-27T06:51:22;16.60;;;13.13;;
14768;SDS011;7476;49.404;11.152;2022-08-27T06:53:51;17.33;;;13.67;;
14768;SDS011;7476;49.404;11.152;2022-08-27T06:56:19;15.67;;;13.87;;
14768;SDS011;7476;49.404;11.152;2022-08-27T06:58:46;20.63;;;14.13;;
14768;SDS011;7476;49.404;11.152;2022-08-27T07:01:14;16.80;;;14.07;;
14768;SDS011;7476;49.404;11.152;2022-08-27T07:03:43;17.67;;;14.70;;
14768;SDS011;7476;49.404;11.152;2022-08-27T07:06:12;17.37;;;13.53;;
14768;SDS011;7476;49.404;11.152;2022-08-27T07:08:40;15.33;;;13.77;;
14768;SDS011;7476;49.404;11.152;2022-08-27T07:11:08;16.53;;;13.87;;
14768;SDS011;7476;49.404;11.152;2022-08-27T07:13:36;15.13;;;13.53;;
14768;SDS011;7476;49.404;11.152;2022-08-27T07:16:03;16.97;;;13.50;;
14768;SDS011;7476;49.404;11.152;2022-08-27T07:18:30;16.93;;;13.60;;
14768;SDS011;7476;49.404;11.152;2022-08-27T07:20:57;18.20;;;14.67;;
14768;SDS011;7476;49.404;11.152;2022-08-27T07:23:25;15.67;;;13.70;;
14768;SDS011;7476;49.404;11.152;2022-08-27T07:25:52;16.77;;;13.80;;
14768;SDS011;7476;49.404;11.152;2022-08-27T07:28:19;15.10;;;13.30;;
14768;SDS011;7476;49.404;11.152;2022-08-27T07:30:45;17.27;;;13.53;;
14768;SDS011;7476;49.404;11.152;2022-08-27T07:33:12;17.87;;;14.13;;
14768;SDS011;7476;49.404;11.152;2022-08-27T07:35:39;23.60;;;15.93;;
14768;SDS011;7476;49.404;11.152;2022-08-27T07:38:08;19.50;;;14.90;;
14768;SDS011;7476;49.404;11.152;2022-08-27T07:40:36;22.20;;;15.43;;
14768;SDS011;7476;49.404;11.152;2022-08-27T07:43:03;21.53;;;16.03;;
14768;SDS011;7476;49.404;11.152;2022-08-27T07:45:48;20.97;;;15.90;;
14768;SDS011;7476;49.404;11.152;2022-08-27T07:48:19;21.30;;;15.30;;
14768;SDS011;7476;49.404;11.152;2022-08-27T07:50:46;19.20;;;15.27;;
14768;SDS011;7476;49.404;11.152;2022-08-27T07:53:13;18.53;;;15.40;;
14768;SDS011;7476;49.404;11.152;2022-08-27T07:55:41;20.30;;;15.67;;
14768;SDS011;7476;49.404;11.152;2022-08-27T07:58:09;18.23;;;14.93;;
14768;SDS011;7476;49.404;11.152;2022-08-27T08:00:36;16.80;;;14.00;;
14768;SDS011;7476;49.404;11.152;2022-08-27T08:03:02;16.57;;;13.93;;
14768;SDS011;7476;49.404;11.152;2022-08-27T08:05:29;17.60;;;13.47;;
14768;SDS011;7476;49.404;11.152;2022-08-27T08:07:56;14.90;;;12.70;;
14768;SDS011;7476;49.404;11.152;2022-08-27T08:10:22;18.93;;;14.10;;
14768;SDS011;7476;49.404;11.152;2022-08-27T08:12:50;19.40;;;14.27;;
14768;SDS011;7476;49.404;11.152;2022-08-27T08:15:17;15.57;;;13.27;;
14768;SDS011;7476;49.404;11.152;2022-08-27T08:17:44;14.27;;;12.77;;
14768;SDS011;7476;49.404;11.152;2022-08-27T08:20:12;13.23;;;11.63;;
14768;SDS011;7476;49.404;11.152;2022-08-27T08:22:40;11.47;;;9.43;;
14768;SDS011;7476;49.404;11.152;2022-08-27T08:25:07;11.53;;;10.37;;
14768;SDS011;7476;49.404;11.152;2022-08-27T08:27:34;14.10;;;10.07;;
14768;SDS011;7476;49.404;11.152;2022-08-27T08:30:03;9.67;;;8.77;;
14768;SDS011;7476;49.404;11.152;2022-08-27T08:32:30;12.23;;;9.57;;
14768;SDS011;7476;49.404;11.152;2022-08-27T08:34:57;10.40;;;9.30;;
14768;SDS011;7476;49.404;11.152;2022-08-27T08:37:24;10.07;;;8.30;;
14768;SDS011;7476;49.404;11.152;2022-08-27T08:39:51;10.20;;;8.57;;
14768;SDS011;7476;49.404;11.152;2022-08-27T08:42:24;9.10;;;8.20;;
14768;SDS011;7476;49.404;11.152;2022-08-27T08:44:55;9.33;;;8.43;;
14768;SDS011;7476;49.404;11.152;2022-08-27T08:47:26;7.97;;;7.17;;
14768;SDS011;7476;49.404;11.152;2022-08-27T08:49:56;8.90;;;7.50;;
14768;SDS011;7476;49.404;11.152;2022-08-27T08:52:31;8.27;;;6.80;;
14768;SDS011;7476;49.404;11.152;2022-08-27T08:55:21;8.00;;;7.23;;
14768;SDS011;7476;49.404;11.152;2022-08-27T08:57:59;8.43;;;7.50;;
14768;SDS011;7476;49.404;11.152;2022-08-27T09:00:34;8.20;;;7.23;;
14768;SDS011;7476;49.404;11.152;2022-08-27T09:03:04;7.27;;;6.20;;
14768;SDS011;7476;49.404;11.152;2022-08-27T09:05:31;7.43;;;6.73;;
14768;SDS011;7476;49.404;11.152;2022-08-27T09:08:02;7.07;;;6.40;;
14768;SDS011;7476;49.404;11.152;2022-08-27T09:10:33;7.33;;;6.63;;
14768;SDS011;7476;49.404;11.152;2022-08-27T09:13:09;8.20;;;6.70;;
14768;SDS011;7476;49.404;11.152;2022-08-27T09:15:43;7.43;;;6.67;;
14768;SDS011;7476;49.404;11.152;2022-08-27T09:18:13;6.87;;;6.20;;
14768;SDS011;7476;49.404;11.152;2022-08-27T09:20:41;8.47;;;6.27;;
14768;SDS011;7476;49.404;11.152;2022-08-27T09:23:13;7.20;;;6.50;;
14768;SDS011;7476;49.404;11.152;2022-08-27T09:25:44;7.07;;;6.47;;
14768;SDS011;7476;49.404;11.152;2022-08-27T09:28:12;7.63;;;6.17;;
14768;SDS011;7476;49.404;11.152;2022-08-27T09:30:58;6.83;;;6.13;;
14768;SDS011;7476;49.404;11.152;2022-08-27T09:33:29;7.07;;;6.47;;
14768;SDS011;7476;49.404;11.152;2022-08-27T09:35:59;6.97;;;6.30;;
14768;SDS011;7476;49.404;11.152;2022-08-27T09:38:28;8.40;;;7.60;;
14768;SDS011;7476;49.404;11.152;2022-08-27T09:40:57;7.93;;;7.13;;
14768;SDS011;7476;49.404;11.152;2022-08-27T09:43:26;8.13;;;7.03;;
14768;SDS011;7476;49.404;11.152;2022-08-27T09:45:56;7.63;;;6.93;;
14768;SDS011;7476;49.404;11.152;2022-08-27T09:48:25;8.27;;;7.37;;
14768;SDS011;7476;49.404;11.152;2022-08-27T09:50:55;7.40;;;6.70;;
14768;SDS011;7476;49.404;11.152;2022-08-27T09:53:24;8.47;;;7.57;;
14768;SDS011;7476;49.404;11.152;2022-08-27T09:55:55;8.33;;;7.43;;
14768;SDS011;7476;49.404;11.152;2022-08-27T09:58:25;8.57;;;7.67;;
14768;SDS011;7476;49.404;11.152;2022-08-27T10:00:58;8.47;;;7.60;;
14768;SDS011;7476;49.404;11.152;2022-08-27T10:03:26;8.83;;;7.93;;
14768;SDS011;7476;49.404;11.152;2022-08-27T10:05:55;9.47;;;8.57;;
14768;SDS011;7476;49.404;11.152;2022-08-27T10:08:23;11.20;;;8.43;;
14768;SDS011;7476;49.404;11.152;2022-08-27T10:10:54;9.17;;;7.83;;
14768;SDS011;7476;49.404;11.152;2022-08-27T10:13:25;9.47;;;7.90;;
14768;SDS011;7476;49.404;11.152;2022-08-27T10:16:14;9.33;;;7.47;;
14768;SDS011;7476;49.404;11.152;2022-08-27T10:18:55;10.80;;;7.50;;
14768;SDS011;7476;49.404;11.152;2022-08-27T10:21:32;9.03;;;7.50;;
14768;SDS011;7476;49.404;11.152;2022-08-27T10:24:11;8.80;;;7.97;;
14768;SDS011;7476;49.404;11.152;2022-08-27T10:26:46;8.97;;;7.50;;
14768;SDS011;7476;49.404;11.152;2022-08-27T10:29:22;7.67;;;6.93;;
14768;SDS011;7476;49.404;11.152;2022-08-27T10:31:57;11.37;;;7.90;;
14768;SDS011;7476;49.404;11.152;2022-08-27T10:34:33;10.53;;;8.33;;
14768;SDS011;7476;49.404;11.152;2022-08-27T10:37:12;8.20;;;7.40;;
14768;SDS011;7476;49.404;11.152;2022-08-27T10:39:53;9.33;;;7.60;;
14768;SDS011;7476;49.404;11.152;2022-08-27T10:42:31;9.07;;;8.03;;
14768;SDS011;7476;49.404;11.152;2022-08-27T10:45:05;8.37;;;7.57;;
14768;SDS011;7476;49.404;11.152;2022-08-27T10:47:44;7.70;;;6.90;;
14768;SDS011;7476;49.404;11.152;2022-08-27T10:50:23;7.73;;;6.83;;
14768;SDS011;7476;49.404;11.152;2022-08-27T10:52:55;8.10;;;7.30;;
14768;SDS011;7476;49.404;11.152;2022-08-27T10:55:26;7.10;;;6.43;;
14768;SDS011;7476;49.404;11.152;2022-08-27T11:01:04;6.10;;;5.50;;
14768;SDS011;7476;49.404;11.152;2022-08-27T11:03:38;7.53;;;6.83;;
14768;SDS011;7476;49.404;11.152;2022-08-27T11:06:11;7.10;;;6.40;;
14768;SDS011;7476;49.404;11.152;2022-08-27T11:08:43;8.00;;;7.20;;
14768;SDS011;7476;49.404;11.152;2022-08-27T11:11:18;8.23;;;7.07;;
14768;SDS011;7476;49.404;11.152;2022-08-27T11:13:52;7.33;;;6.63;;
14768;SDS011;7476;49.404;11.152;2022-08-27T11:16:23;7.20;;;6.60;;
14768;SDS011;7476;49.404;11.152;2022-08-27T11:18:53;7.97;;;6.53;;
14768;SDS011;7476;49.404;11.152;2022-08-27T11:21:26;6.80;;;6.07;;
14768;SDS011;7476;49.404;11.152;2022-08-27T11:24:02;6.93;;;6.23;;
14768;SDS011;7476;49.404;11.152;2022-08-27T11:26:37;6.33;;;5.83;;
14768;SDS011;7476;49.404;11.152;2022-08-27T11:29:08;5.30;;;4.90;;
14768;SDS011;7476;49.404;11.152;2022-08-27T11:31:41;6.88;;;5.25;;
14768;SDS011;7476;49.404;11.152;2022-08-27T11:34:15;6.68;;;4.97;;
14768;SDS011;7476;49.404;11.152;2022-08-27T11:42:40;6.78;;;4.47;;
14768;SDS011;7476;49.404;11.152;2022-08-27T11:45:14;4.57;;;4.18;;
14768;SDS011;7476;49.404;11.152;2022-08-27T11:47:49;4.90;;;4.50;;
14768;SDS011;7476;49.404;11.152;2022-08-27T11:50:18;5.33;;;4.50;;
14768;SDS011;7476;49.404;11.152;2022-08-27T11:52:53;4.50;;;3.80;;
14768;SDS011;7476;49.404;11.152;2022-08-27T11:55:26;3.93;;;3.37;;
14768;SDS011;7476;49.404;11.152;2022-08-27T11:58:03;4.13;;;2.78;;
14768;SDS011;7476;49.404;11.152;2022-08-27T12:00:33;4.18;;;3.20;;
14768;SDS011;7476;49.404;11.152;2022-08-27T12:03:03;4.63;;;3.33;;
14768;SDS011;7476;49.404;11.152;2022-08-27T12:05:35;3.70;;;3.10;;
14768;SDS011;7476;49.404;11.152;2022-08-27T12:08:14;3.38;;;3.08;;
14768;SDS011;7476;49.404;11.152;2022-08-27T12:10:50;3.75;;;3.45;;
14768;SDS011;7476;49.404;11.152;2022-08-27T12:13:27;4.00;;;3.60;;
14768;SDS011;7476;49.404;11.152;2022-08-27T12:16:00;4.50;;;4.10;;
14768;SDS011;7476;49.404;11.152;2022-08-27T12:18:41;4.13;;;3.83;;
14768;SDS011;7476;49.404;11.152;2022-08-27T12:21:28;4.80;;;3.83;;
14768;SDS011;7476;49.404;11.152;2022-08-27T12:24:09;3.92;;;3.53;;
14768;SDS011;7476;49.404;11.152;2022-08-27T12:26:54;4.77;;;4.37;;
14768;SDS011;7476;49.404;11.152;2022-08-27T12:29:23;4.40;;;4.00;;
14768;SDS011;7476;49.404;11.152;2022-08-27T12:31:59;4.77;;;4.30;;
14768;SDS011;7476;49.404;11.152;2022-08-27T12:34:29;4.60;;;4.20;;
14768;SDS011;7476;49.404;11.152;2022-08-27T12:37:08;4.60;;;4.20;;
14768;SDS011;7476;49.404;11.152;2022-08-27T12:39:36;3.63;;;3.13;;
14768;SDS011;7476;49.404;11.152;2022-08-27T12:42:12;3.40;;;3.10;;
14768;SDS011;7476;49.404;11.152;2022-08-27T12:44:40;3.27;;;2.73;;
14768;SDS011;7476;49.404;11.152;2022-08-27T12:47:07;3.07;;;2.77;;
14768;SDS011;7476;49.404;11.152;2022-08-27T12:49:40;3.25;;;2.95;;
14768;SDS011;7476;49.404;11.152;2022-08-27T12:52:13;3.28;;;3.08;;
14768;SDS011;7476;49.404;11.152;2022-08-27T12:55:03;2.85;;;2.63;;
14768;SDS011;7476;49.404;11.152;2022-08-27T12:57:40;4.28;;;3.20;;
14768;SDS011;7476;49.404;11.152;2022-08-27T13:00:13;3.05;;;2.75;;
14768;SDS011;7476;49.404;11.152;2022-08-27T13:02:49;3.20;;;2.90;;
14768;SDS011;7476;49.404;11.152;2022-08-27T13:05:34;2.88;;;2.60;;
14768;SDS011;7476;49.404;11.152;2022-08-27T13:08:03;2.75;;;2.55;;
14768;SDS011;7476;49.404;11.152;2022-08-27T13:10:31;2.50;;;2.30;;
14768;SDS011;7476;49.404;11.152;2022-08-27T13:13:06;2.80;;;2.60;;
14768;SDS011;7476;49.404;11.152;2022-08-27T13:15:34;4.13;;;2.95;;
14768;SDS011;7476;49.404;11.152;2022-08-27T13:18:03;2.88;;;2.67;;
14768;SDS011;7476;49.404;11.152;2022-08-27T13:20:33;3.28;;;2.92;;
14768;SDS011;7476;49.404;11.152;2022-08-27T13:23:03;2.83;;;2.63;;
14768;SDS011;7476;49.404;11.152;2022-08-27T13:25:32;2.75;;;2.55;;
14768;SDS011;7476;49.404;11.152;2022-08-27T13:28:01;3.08;;;2.83;;
14768;SDS011;7476;49.404;11.152;2022-08-27T13:30:36;3.40;;;3.10;;
14768;SDS011;7476;49.404;11.152;2022-08-27T13:33:06;2.88;;;2.67;;
14768;SDS011;7476;49.404;11.152;2022-08-27T13:35:39;3.30;;;3.00;;
14768;SDS011;7476;49.404;11.152;2022-08-27T13:38:07;3.60;;;3.30;;
14768;SDS011;7476;49.404;11.152;2022-08-27T13:40:35;3.47;;;3.17;;
14768;SDS011;7476;49.404;11.152;2022-08-27T13:43:15;3.30;;;3.00;;
14768;SDS011;7476;49.404;11.152;2022-08-27T13:45:46;3.80;;;3.30;;
14768;SDS011;7476;49.404;11.152;2022-08-27T13:48:15;3.30;;;3.00;;
14768;SDS011;7476;49.404;11.152;2022-08-27T13:50:46;3.03;;;2.83;;
14768;SDS011;7476;49.404;11.152;2022-08-27T13:53:17;3.67;;;3.27;;
14768;SDS011;7476;49.404;11.152;2022-08-27T13:56:05;3.73;;;3.13;;
14768;SDS011;7476;49.404;11.152;2022-08-27T13:58:33;3.17;;;2.97;;
14768;SDS011;7476;49.404;11.152;2022-08-27T14:01:12;3.33;;;3.03;;
14768;SDS011;7476;49.404;11.152;2022-08-27T14:03:46;3.90;;;3.50;;
14768;SDS011;7476;49.404;11.152;2022-08-27T14:06:23;3.73;;;3.43;;
14768;SDS011;7476;49.404;11.152;2022-08-27T14:08:52;4.00;;;3.20;;
14768;SDS011;7476;49.404;11.152;2022-08-27T14:11:20;4.60;;;3.97;;
14768;SDS011;7476;49.404;11.152;2022-08-27T14:13:49;4.47;;;4.07;;
14768;SDS011;7476;49.404;11.152;2022-08-27T14:16:23;5.40;;;4.30;;
14768;SDS011;7476;49.404;11.152;2022-08-27T14:18:52;5.07;;;4.43;;
14768;SDS011;7476;49.404;11.152;2022-08-27T14:21:22;7.37;;;4.27;;
14768;SDS011;7476;49.404;11.152;2022-08-27T14:23:48;5.00;;;4.50;;
14768;SDS011;7476;49.404;11.152;2022-08-27T14:26:17;4.77;;;4.37;;
14768;SDS011;7476;49.404;11.152;2022-08-27T14:28:44;5.37;;;4.60;;
14768;SDS011;7476;49.404;11.152;2022-08-27T14:31:11;5.53;;;4.70;;
14768;SDS011;7476;49.404;11.152;2022-08-27T14:33:40;5.30;;;4.80;;
14768;SDS011;7476;49.404;11.152;2022-08-27T14:36:07;5.33;;;4.83;;
14768;SDS011;7476;49.404;11.152;2022-08-27T14:38:35;5.47;;;4.40;;
14768;SDS011;7476;49.404;11.152;2022-08-27T14:41:04;6.47;;;4.33;;
14768;SDS011;7476;49.404;11.152;2022-08-27T14:43:31;5.10;;;3.90;;
14768;SDS011;7476;49.404;11.152;2022-08-27T14:45:58;4.40;;;3.60;;
14768;SDS011;7476;49.404;11.152;2022-08-27T14:48:26;3.80;;;3.50;;
14768;SDS011;7476;49.404;11.152;2022-08-27T14:50:58;3.30;;;2.83;;
14768;SDS011;7476;49.404;11.152;2022-08-27T14:53:26;2.67;;;2.47;;
14768;SDS011;7476;49.404;11.152;2022-08-27T14:55:53;3.00;;;2.70;;
14768;SDS011;7476;49.404;11.152;2022-08-27T14:58:22;2.60;;;2.40;;